Time;durP1;ratioP1;P1;durP2;ratioP2;P2;SDS_P1;SDS_P2;PMS_P1;PMS_P2;Temp;Humidity;BMP_temperature;BMP_pressure;BME280_temperature;BME280_humidity;BME280_pressure;Samples;Min_cycle;Max_cycle;Signal;HPM_P1;HPM_P2
2023/12/26 00:00:26;;;;;;;23.83;13.97;;;;;;;10.00;63.91;94764.69;5052851;28;20682;-69
2023/12/26 00:02:53;;;;;;;24.70;14.17;;;;;;;9.99;63.96;94760.53;5053049;28;20201;-69
2023/12/26 00:05:21;;;;;;;23.37;13.90;;;;;;;9.87;63.94;94745.44;5052473;28;20184;-69
2023/12/26 00:07:48;;;;;;;21.50;12.97;;;;;;;9.82;63.87;94737.38;5053043;28;20214;-71
2023/12/26 00:10:15;;;;;;;24.87;14.40;;;;;;;9.94;63.93;94767.78;5052707;28;20189;-68
2023/12/26 00:12:43;;;;;;;24.47;14.57;;;;;;;9.93;63.79;94755.13;5052493;28;20191;-68
2023/12/26 00:15:10;;;;;;;22.27;12.80;;;;;;;9.91;63.97;94762.13;5052260;28;20260;-70
2023/12/26 00:17:38;;;;;;;22.73;13.07;;;;;;;9.90;64.14;94760.53;5052217;28;20197;-70
2023/12/26 00:20:07;;;;;;;27.37;13.13;;;;;;;9.88;63.99;94762.38;5052459;28;20253;-70
2023/12/26 00:22:35;;;;;;;24.17;14.20;;;;;;;9.62;64.01;94729.66;5052334;28;20253;-72
2023/12/26 00:25:03;;;;;;;21.87;11.80;;;;;;;9.69;64.19;94747.84;5052629;28;20244;-70
2023/12/26 00:27:29;;;;;;;28.43;13.70;;;;;;;9.67;63.90;94747.97;5052404;28;20191;-68
2023/12/26 00:29:56;;;;;;;19.80;11.87;;;;;;;9.50;64.22;94729.00;5052134;28;20659;-72
2023/12/26 00:32:23;;;;;;;24.80;13.43;;;;;;;9.79;64.13;94777.56;5052112;28;20617;-69
2023/12/26 00:34:51;;;;;;;18.80;12.10;;;;;;;9.59;64.22;94747.81;5052031;28;20288;-71
2023/12/26 00:37:19;;;;;;;19.17;12.07;;;;;;;9.72;64.17;94775.69;5052086;28;20192;-74
2023/12/26 00:39:46;;;;;;;19.57;12.37;;;;;;;9.19;64.32;94697.56;5051591;28;20322;-73
2023/12/26 00:42:12;;;;;;;19.27;12.17;;;;;;;9.74;64.09;94789.09;5051837;28;20183;-75
2023/12/26 00:44:40;;;;;;;25.97;12.93;;;;;;;9.55;64.19;94762.59;5052113;28;20198;-73
2023/12/26 00:47:06;;;;;;;21.20;13.27;;;;;;;9.54;64.38;94767.81;5051958;28;20268;-72
2023/12/26 00:49:33;;;;;;;21.97;12.03;;;;;;;9.63;64.28;94776.44;5052011;28;20217;-74
2023/12/26 00:52:02;;;;;;;25.90;12.90;;;;;;;9.69;64.18;94798.91;5051869;28;20600;-73
2023/12/26 00:54:28;;;;;;;19.27;11.67;;;;;;;9.68;64.38;94804.97;5051505;28;20197;-72
2023/12/26 00:56:55;;;;;;;21.20;10.97;;;;;;;9.25;64.52;94732.78;5051313;28;20184;-74
2023/12/26 00:59:22;;;;;;;20.37;10.53;;;;;;;9.00;64.26;94695.75;5051458;28;20238;-71
2023/12/26 01:01:49;;;;;;;22.17;11.87;;;;;;;9.63;64.49;94800.25;5051726;28;20213;-75
2023/12/26 01:04:16;;;;;;;21.27;11.50;;;;;;;9.57;64.60;94794.84;5051711;28;20595;-69
2023/12/26 01:06:43;;;;;;;17.50;11.03;;;;;;;9.54;64.40;94799.28;5051628;28;20205;-74
2023/12/26 01:09:13;;;;;;;22.57;12.63;;;;;;;9.55;64.51;94800.88;5051637;28;20190;-74
2023/12/26 01:11:40;;;;;;;20.33;11.13;;;;;;;9.53;64.56;94802.75;5051630;28;20271;-74
2023/12/26 01:14:07;;;;;;;21.33;11.07;;;;;;;9.56;64.49;94809.34;5051716;28;20190;-72
2023/12/26 01:16:33;;;;;;;17.37;10.50;;;;;;;9.55;64.69;94805.19;5051655;28;20198;-74
2023/12/26 01:19:00;;;;;;;20.07;11.10;;;;;;;9.39;64.49;94780.13;5051209;28;20241;-70
2023/12/26 01:21:27;;;;;;;21.63;11.57;;;;;;;9.52;64.54;94797.78;5051310;28;20187;-70
2023/12/26 01:23:55;;;;;;;18.50;11.03;;;;;;;9.51;64.45;94796.16;5050785;28;20297;-71
2023/12/26 01:26:23;;;;;;;17.30;10.53;;;;;;;9.50;64.73;94800.47;5051120;28;20626;-71
2023/12/26 01:28:50;;;;;;;22.83;10.87;;;;;;;9.20;64.73;94752.78;5051211;28;20195;-69
2023/12/26 01:31:17;;;;;;;18.40;9.97;;;;;;;9.48;64.48;94804.88;5051260;28;20199;-69
2023/12/26 01:33:44;;;;;;;17.40;10.47;;;;;;;9.46;64.72;94795.75;5051226;28;20198;-72
2023/12/26 01:36:11;;;;;;;19.80;10.67;;;;;;;9.44;64.74;94798.41;5050734;28;20187;-67
2023/12/26 01:38:37;;;;;;;24.03;10.80;;;;;;;9.44;64.64;94798.41;5051020;28;20191;-68
2023/12/26 01:41:05;;;;;;;21.37;11.13;;;;;;;9.44;64.65;94800.16;5052186;28;20698;-69
2023/12/26 01:43:33;;;;;;;26.57;12.97;;;;;;;9.28;64.69;94775.94;5051676;28;20560;-68
2023/12/26 01:46:00;;;;;;;22.97;12.93;;;;;;;9.43;64.93;94803.66;5050844;28;20191;-70
2023/12/26 01:48:28;;;;;;;25.07;12.63;;;;;;;9.43;65.11;94801.09;5051378;28;20179;-69
2023/12/26 01:50:55;;;;;;;22.53;12.37;;;;;;;9.41;64.94;94801.22;5050683;28;20268;-68
2023/12/26 01:53:22;;;;;;;23.60;12.90;;;;;;;9.37;64.95;94794.78;5050542;28;20234;-69
2023/12/26 01:55:49;;;;;;;25.57;12.87;;;;;;;9.27;65.18;94778.59;5050583;28;20180;-68
2023/12/26 01:58:16;;;;;;;20.27;12.17;;;;;;;9.44;65.07;94813.72;5050879;28;20198;-69
2023/12/26 02:00:44;;;;;;;20.63;12.20;;;;;;;9.46;65.09;94800.84;5052567;28;20657;-71
2023/12/26 02:03:11;;;;;;;22.70;13.00;;;;;;;9.47;65.08;94803.25;5051767;28;20750;-69
2023/12/26 02:05:38;;;;;;;23.27;13.30;;;;;;;9.49;64.89;94808.22;5056151;28;20191;-69
2023/12/26 02:08:08;;;;;;;22.20;12.83;;;;;;;9.50;65.03;94803.00;5050541;28;20187;-69
2023/12/26 02:10:35;;;;;;;23.43;13.23;;;;;;;9.52;65.02;94802.88;5050196;28;20230;-71
2023/12/26 02:13:01;;;;;;;20.47;13.13;;;;;;;9.53;64.88;94794.28;5050143;28;20195;-70
2023/12/26 02:15:28;;;;;;;23.27;13.27;;;;;;;9.43;64.97;94780.69;5050225;28;20183;-69
2023/12/26 02:17:58;;;;;;;24.17;12.93;;;;;;;9.55;64.96;94800.88;5049581;28;20666;-70
2023/12/26 02:20:25;;;;;;;19.63;12.20;;;;;;;9.54;64.98;94796.72;5050257;28;20214;-69
2023/12/26 02:22:51;;;;;;;21.87;11.80;;;;;;;9.54;64.96;94789.06;5049720;28;20652;-69
2023/12/26 02:25:20;;;;;;;20.03;12.03;;;;;;;9.55;64.82;94798.31;5050077;28;20574;-70
2023/12/26 02:27:49;;;;;;;24.50;12.37;;;;;;;9.50;64.92;94786.91;5049649;28;20199;-68
2023/12/26 02:30:18;;;;;;;22.57;12.77;;;;;;;9.58;65.13;94794.69;5050086;28;20197;-68
2023/12/26 02:32:46;;;;;;;24.17;12.20;;;;;;;9.54;64.97;94790.78;5049532;28;20197;-72
2023/12/26 02:35:14;;;;;;;18.63;11.10;;;;;;;9.59;64.95;94792.97;5049934;28;20195;-69
2023/12/26 02:37:41;;;;;;;20.27;10.43;;;;;;;9.58;65.00;94793.88;5050204;28;20544;-68
2023/12/26 02:40:09;;;;;;;19.90;11.43;;;;;;;9.56;65.00;94796.56;5049976;28;20234;-68
2023/12/26 02:42:38;;;;;;;18.33;10.00;;;;;;;9.39;64.88;94781.88;5049470;28;20274;-67
2023/12/26 02:45:06;;;;;;;16.70;9.90;;;;;;;9.53;65.05;94800.19;5049782;28;20199;-68
2023/12/26 02:47:32;;;;;;;21.67;11.13;;;;;;;9.29;64.97;94769.88;5049675;28;20312;-67
2023/12/26 02:49:59;;;;;;;16.33;10.43;;;;;;;9.51;64.99;94814.03;5049705;28;20190;-68
2023/12/26 02:52:26;;;;;;;18.77;10.30;;;;;;;9.48;65.10;94804.88;5050037;28;20599;-68
2023/12/26 02:54:53;;;;;;;18.07;10.70;;;;;;;9.39;65.03;94792.88;5049401;28;20202;-70
2023/12/26 02:57:20;;;;;;;16.60;9.13;;;;;;;9.14;65.17;94755.03;5049711;28;20403;-70
2023/12/26 02:59:48;;;;;;;17.00;10.23;;;;;;;9.44;65.09;94815.47;5049095;28;20227;-67
2023/12/26 03:02:15;;;;;;;16.50;9.57;;;;;;;9.42;65.13;94814.81;5049645;28;20202;-71
2023/12/26 03:04:41;;;;;;;17.80;10.07;;;;;;;9.40;65.23;94814.09;5049129;28;20183;-68
2023/12/26 03:07:08;;;;;;;17.67;10.80;;;;;;;9.38;65.19;94818.53;5049843;28;20195;-68
2023/12/26 03:09:35;;;;;;;17.00;10.10;;;;;;;9.37;65.19;94816.91;5049525;28;20191;-70
2023/12/26 03:12:02;;;;;;;15.23;9.50;;;;;;;9.20;65.25;94793.59;5049437;28;20205;-68
2023/12/26 03:14:29;;;;;;;15.23;9.13;;;;;;;8.93;65.34;94755.84;5049381;28;20217;-69
2023/12/26 03:16:57;;;;;;;15.87;8.47;;;;;;;9.32;65.35;94819.03;5049452;28;20198;-68
2023/12/26 03:19:24;;;;;;;15.87;9.13;;;;;;;9.30;65.23;94819.16;5050644;28;20718;-70
2023/12/26 03:21:51;;;;;;;15.77;9.63;;;;;;;9.27;65.45;94820.22;5053531;28;20183;-69
2023/12/26 03:24:18;;;;;;;11.57;8.53;;;;;;;9.26;65.31;94818.59;5053244;28;20674;-69
2023/12/26 03:26:45;;;;;;;15.93;9.03;;;;;;;9.25;65.29;94821.31;5053726;28;20190;-69
2023/12/26 03:29:11;;;;;;;12.10;8.27;;;;;;;9.16;65.35;94804.19;5053696;28;20213;-68
2023/12/26 03:31:43;;;;;;;17.43;8.87;;;;;;;9.21;65.41;94825.84;5053179;28;20191;-68
2023/12/26 03:34:11;;;;;;;14.07;8.50;;;;;;;8.67;65.35;94745.25;5053519;28;20191;-68
2023/12/26 03:36:43;;;;;;;13.00;8.80;;;;;;;9.18;65.61;94823.53;5053093;28;20179;-67
2023/12/26 03:39:10;;;;;;;13.07;8.03;;;;;;;9.17;65.70;94826.22;5053054;28;20242;-68
2023/12/26 03:41:37;;;;;;;11.97;7.63;;;;;;;9.14;65.71;94821.34;5052942;28;20206;-69
2023/12/26 03:44:03;;;;;;;15.30;7.97;;;;;;;9.10;65.78;94820.78;5053123;28;20194;-68
2023/12/26 03:46:30;;;;;;;13.87;8.67;;;;;;;9.08;65.63;94814.22;5052839;28;20198;-71
2023/12/26 03:48:57;;;;;;;13.80;7.90;;;;;;;9.08;65.73;94821.88;5053417;28;20187;-74
2023/12/26 03:51:26;;;;;;;11.47;7.67;;;;;;;8.72;65.69;94766.09;5053101;28;20203;-72
2023/12/26 03:53:53;;;;;;;14.83;8.53;;;;;;;9.11;65.66;94824.16;5053288;28;20245;-70
2023/12/26 03:56:19;;;;;;;12.57;7.73;;;;;;;9.00;65.81;94814.84;5053217;28;20221;-71
2023/12/26 03:58:46;;;;;;;14.37;7.70;;;;;;;9.08;65.91;94829.53;5053529;28;20187;-70
2023/12/26 04:01:13;;;;;;;15.80;8.03;;;;;;;9.02;65.74;94825.72;5052741;28;20233;-69
2023/12/26 04:03:40;;;;;;;14.43;7.90;;;;;;;9.02;65.90;94829.09;5052918;28;20194;-73
2023/12/26 04:06:07;;;;;;;10.20;7.60;;;;;;;9.03;65.79;94825.59;5052764;28;20194;-73
2023/12/26 04:08:35;;;;;;;14.17;7.57;;;;;;;8.75;65.94;94782.88;5052793;28;20204;-73
2023/12/26 04:11:02;;;;;;;12.73;7.83;;;;;;;8.94;65.93;94818.72;5052651;28;20199;-75
2023/12/26 04:13:29;;;;;;;14.77;8.00;;;;;;;8.83;66.09;94802.66;5052437;28;20264;-69
2023/12/26 04:15:56;;;;;;;17.00;7.80;;;;;;;8.91;66.08;94815.59;5052587;28;20244;-73
2023/12/26 04:18:23;;;;;;;14.57;8.47;;;;;;;9.02;66.32;94834.19;5052161;28;20227;-70
2023/12/26 04:20:49;;;;;;;14.03;8.20;;;;;;;9.05;66.42;94840.78;5052435;28;20222;-68
2023/12/26 04:23:15;;;;;;;14.77;8.13;;;;;;;9.04;66.25;94834.88;5052496;28;20207;-67
2023/12/26 04:25:43;;;;;;;12.43;7.90;;;;;;;9.10;66.29;94840.41;5052485;28;20324;-67
2023/12/26 04:28:10;;;;;;;11.47;7.93;;;;;;;8.84;66.23;94799.97;5052337;28;20187;-73
2023/12/26 04:30:38;;;;;;;17.53;8.43;;;;;;;8.86;66.34;94810.88;5051622;28;20191;-71
2023/12/26 04:33:07;;;;;;;14.17;7.53;;;;;;;9.11;66.38;94847.09;5052531;28;20202;-74
2023/12/26 04:35:34;;;;;;;11.73;7.17;;;;;;;9.12;66.43;94849.56;5052369;28;20191;-71
2023/12/26 04:38:01;;;;;;;11.33;8.10;;;;;;;9.12;66.28;94846.19;5052531;28;20195;-73
2023/12/26 04:40:28;;;;;;;12.70;7.83;;;;;;;9.13;66.26;94852.91;5053550;28;20233;-75
2023/12/26 04:42:57;;;;;;;15.90;7.30;;;;;;;9.15;66.23;94851.03;5061056;28;20194;-71
2023/12/26 04:45:24;;;;;;;15.50;8.23;;;;;;;9.08;66.19;94843.09;5054212;28;20245;-74
2023/12/26 04:47:51;;;;;;;13.27;7.90;;;;;;;9.07;66.42;94840.63;5052196;28;20191;-74
2023/12/26 04:50:18;;;;;;;13.33;8.37;;;;;;;9.15;66.26;94858.69;5051994;28;20198;-69
2023/12/26 04:52:45;;;;;;;14.20;7.50;;;;;;;9.00;66.25;94837.78;5051814;28;20317;-74
2023/12/26 04:55:12;;;;;;;12.70;8.03;;;;;;;9.12;66.27;94856.41;5051531;28;20281;-74
2023/12/26 04:57:39;;;;;;;11.57;7.47;;;;;;;8.95;66.04;94835.63;5051970;28;20206;-71
2023/12/26 05:00:10;;;;;;;12.97;7.47;;;;;;;9.07;66.21;94853.41;5051263;28;20207;-72
2023/12/26 05:02:38;;;;;;;14.13;7.80;;;;;;;9.05;66.22;94858.63;5051774;28;20682;-71
2023/12/26 05:05:05;;;;;;;16.00;8.00;;;;;;;9.02;66.35;94864.81;5051494;28;20186;-68
2023/12/26 05:07:32;;;;;;;13.03;7.80;;;;;;;8.90;66.38;94847.13;5052038;28;20244;-74
2023/12/26 05:09:59;;;;;;;14.27;8.30;;;;;;;8.87;66.38;94848.19;5051357;28;20198;-69
2023/12/26 05:12:28;;;;;;;13.20;8.03;;;;;;;8.95;66.24;94861.13;5051618;28;20203;-69
2023/12/26 05:14:55;;;;;;;13.13;7.67;;;;;;;8.92;66.31;94858.00;5051090;28;20195;-74
2023/12/26 05:17:23;;;;;;;12.97;8.13;;;;;;;8.91;66.39;94856.41;5051898;28;20186;-71
2023/12/26 05:19:50;;;;;;;13.77;8.33;;;;;;;8.75;66.15;94834.66;5051143;28;20227;-71
2023/12/26 05:22:17;;;;;;;13.90;8.03;;;;;;;8.86;66.22;94850.84;5051516;28;20226;-73
2023/12/26 05:24:44;;;;;;;13.17;7.60;;;;;;;8.83;66.51;94846.00;5051060;28;20277;-70
2023/12/26 05:27:12;;;;;;;9.97;6.43;;;;;;;8.80;66.44;94844.50;5051481;28;20187;-74
2023/12/26 05:29:43;;;;;;;15.30;8.47;;;;;;;8.78;66.50;94849.72;5051132;28;20217;-69
2023/12/26 05:32:10;;;;;;;13.23;7.73;;;;;;;8.77;66.58;94852.41;5051477;28;20197;-68
2023/12/26 05:34:38;;;;;;;13.63;7.67;;;;;;;8.75;66.52;94852.50;5051196;28;20183;-72
2023/12/26 05:37:05;;;;;;;11.67;7.60;;;;;;;8.73;66.61;94854.38;5050906;28;20195;-72
2023/12/26 05:39:34;;;;;;;12.07;7.90;;;;;;;8.72;66.57;94857.88;5051076;28;20556;-70
2023/12/26 05:42:02;;;;;;;13.33;8.50;;;;;;;8.45;66.58;94817.53;5050157;28;20257;-70
2023/12/26 05:44:29;;;;;;;15.60;8.83;;;;;;;8.59;66.53;94844.47;5051282;28;20318;-67
2023/12/26 05:46:57;;;;;;;13.13;7.43;;;;;;;8.59;66.82;94836.81;5050683;28;20179;-70
2023/12/26 05:49:24;;;;;;;12.47;7.77;;;;;;;8.63;66.84;94843.28;5051051;28;20202;-71
2023/12/26 05:51:52;;;;;;;9.90;7.53;;;;;;;8.65;66.77;94861.03;5050886;28;20278;-71
2023/12/26 05:54:19;;;;;;;15.07;8.13;;;;;;;8.65;66.72;94858.47;5050745;28;20191;-70
2023/12/26 05:56:46;;;;;;;11.73;7.77;;;;;;;8.60;66.76;94855.50;5048850;28;20191;-67
2023/12/26 05:59:13;;;;;;;12.03;8.20;;;;;;;8.63;66.71;94860.31;5051188;28;20217;-71
2023/12/26 06:01:45;;;;;;;13.83;8.67;;;;;;;8.62;66.72;94862.06;5053453;28;20294;-69
2023/12/26 06:04:12;;;;;;;14.13;7.57;;;;;;;8.62;66.94;94864.63;5055925;28;20182;-70
2023/12/26 06:06:39;;;;;;;13.80;7.93;;;;;;;8.01;66.58;94773.41;5050922;28;20202;-72
2023/12/26 06:09:07;;;;;;;14.67;8.20;;;;;;;8.62;66.85;94868.91;5050370;28;20222;-68
2023/12/26 06:11:34;;;;;;;14.63;8.33;;;;;;;8.62;66.87;94871.47;5050091;28;20648;-67
2023/12/26 06:14:01;;;;;;;13.70;7.90;;;;;;;8.63;66.87;94878.16;5049932;28;20191;-71
2023/12/26 06:16:28;;;;;;;13.93;8.43;;;;;;;8.60;66.79;94874.13;5050543;28;20198;-69
2023/12/26 06:18:55;;;;;;;16.03;9.07;;;;;;;8.65;66.97;94873.78;5049679;28;20234;-69
2023/12/26 06:21:22;;;;;;;16.73;8.40;;;;;;;8.67;66.93;94882.09;5050100;28;20231;-69
2023/12/26 06:23:49;;;;;;;12.63;7.20;;;;;;;8.50;66.74;94852.84;5049969;28;20229;-68
2023/12/26 06:26:17;;;;;;;17.90;8.50;;;;;;;8.72;66.84;94879.97;5049883;28;20213;-70
2023/12/26 06:28:44;;;;;;;10.57;7.73;;;;;;;8.87;66.39;94878.78;5049850;28;20190;-67
2023/12/26 06:31:15;;;;;;;13.60;7.87;;;;;;;9.18;66.02;94878.84;5049960;28;20636;-72
2023/12/26 06:33:42;;;;;;;10.80;7.10;;;;;;;9.26;65.78;94841.56;5049866;28;20218;-69
2023/12/26 06:36:09;;;;;;;13.10;8.30;;;;;;;9.78;65.82;94861.97;5049763;28;20187;-72
2023/12/26 06:38:36;;;;;;;13.63;7.90;;;;;;;10.30;65.76;94888.25;5049682;28;20183;-68
2023/12/26 06:41:04;;;;;;;11.60;8.43;;;;;;;10.72;66.20;94883.75;5049167;28;20223;-69
2023/12/26 06:43:32;;;;;;;14.43;8.83;;;;;;;10.59;66.29;94796.25;5049597;28;20289;-70
2023/12/26 06:45:59;;;;;;;14.20;8.73;;;;;;;11.65;66.43;94884.03;5049802;28;20187;-69
2023/12/26 06:48:26;;;;;;;16.50;9.13;;;;;;;12.13;65.98;94890.75;5049573;28;20570;-68
2023/12/26 06:50:53;;;;;;;10.83;7.83;;;;;;;12.36;65.35;94845.84;5049555;28;20191;-68
2023/12/26 06:53:20;;;;;;;12.23;8.00;;;;;;;12.97;65.03;94867.41;5049253;28;20187;-69
2023/12/26 06:55:47;;;;;;;15.13;8.43;;;;;;;13.56;64.66;94876.22;5049476;28;20207;-69
2023/12/26 06:58:14;;;;;;;14.73;8.77;;;;;;;14.09;64.08;94889.84;5049448;28;20199;-68
2023/12/26 07:00:42;;;;;;;13.87;8.30;;;;;;;14.55;63.24;94893.75;5049795;28;20233;-69
2023/12/26 07:03:09;;;;;;;15.83;9.57;;;;;;;15.03;62.45;94900.72;5049548;28;20301;-69
2023/12/26 07:05:35;;;;;;;11.50;8.40;;;;;;;15.49;61.70;94895.88;5049602;28;20324;-68
2023/12/26 07:08:02;;;;;;;15.47;9.07;;;;;;;15.95;60.92;94909.06;5049502;28;20187;-70
2023/12/26 07:10:29;;;;;;;13.70;8.93;;;;;;;16.40;60.08;94905.03;5049307;28;20198;-71
2023/12/26 07:12:56;;;;;;;14.57;8.47;;;;;;;16.85;59.07;94916.47;5049519;28;20191;-71
2023/12/26 07:15:23;;;;;;;14.23;8.97;;;;;;;17.27;58.34;94916.03;5049259;28;20636;-70
2023/12/26 07:17:52;;;;;;;12.30;8.30;;;;;;;17.67;57.61;94914.06;5049871;28;20186;-69
2023/12/26 07:20:19;;;;;;;16.17;8.93;;;;;;;18.06;56.76;94915.66;5054185;28;20282;-74
2023/12/26 07:22:46;;;;;;;18.20;9.33;;;;;;;18.43;56.02;94916.53;5050070;28;20241;-74
2023/12/26 07:25:13;;;;;;;16.40;9.93;;;;;;;18.66;55.18;94903.47;5049466;28;20191;-74
2023/12/26 07:27:40;;;;;;;15.50;9.60;;;;;;;19.13;54.51;94920.31;5049277;28;20251;-75
2023/12/26 07:30:08;;;;;;;13.53;9.30;;;;;;;19.45;53.81;94919.03;5048816;28;20193;-73
2023/12/26 07:32:35;;;;;;;14.45;9.27;;;;;;;19.64;52.97;94902.84;5049154;28;20203;-75
2023/12/26 07:35:03;;;;;;;15.97;9.20;;;;;;;19.90;52.32;94902.22;5049261;28;20641;-74
2023/12/26 07:37:32;;;;;;;14.48;9.77;;;;;;;20.32;51.73;94923.84;5048925;28;20282;-70
2023/12/26 07:39:59;;;;;;;14.10;10.05;;;;;;;20.52;51.13;94922.19;5049231;28;20187;-73
2023/12/26 07:42:26;;;;;;;12.57;8.68;;;;;;;20.74;50.65;94924.66;5048734;28;20588;-71
2023/12/26 07:44:52;;;;;;;14.30;10.50;;;;;;;20.77;50.65;94917.28;5048906;28;20198;-73
2023/12/26 07:47:20;;;;;;;18.08;10.55;;;;;;;20.73;50.34;94925.66;5049102;28;20226;-70
2023/12/26 07:49:47;;;;;;;22.67;15.13;;;;;;;20.60;50.20;94926.41;5049031;28;20184;-69
2023/12/26 07:52:15;;;;;;;21.88;12.57;;;;;;;20.40;50.11;94928.88;5048747;28;20190;-73
2023/12/26 07:54:42;;;;;;;21.90;13.43;;;;;;;20.15;50.48;94919.94;5049109;28;20191;-67
2023/12/26 07:57:09;;;;;;;21.85;14.52;;;;;;;19.90;50.39;94917.00;5048544;28;20191;-69
2023/12/26 07:59:36;;;;;;;24.00;13.68;;;;;;;19.49;50.47;94905.50;5049016;28;20286;-69
2023/12/26 08:02:03;;;;;;;20.73;13.63;;;;;;;19.41;50.60;94926.38;5048183;28;20207;-70
2023/12/26 08:04:30;;;;;;;24.08;13.35;;;;;;;19.20;50.58;94926.38;5049326;28;20300;-72
2023/12/26 08:06:57;;;;;;;20.87;13.03;;;;;;;19.14;50.11;94927.94;5051061;28;20187;-69
2023/12/26 08:09:25;;;;;;;19.63;13.23;;;;;;;19.20;49.74;94929.75;5052546;28;20222;-71
2023/12/26 08:11:52;;;;;;;21.58;12.18;;;;;;;18.99;49.74;94927.97;5052454;28;20205;-74
2023/12/26 08:14:18;;;;;;;23.30;14.23;;;;;;;18.74;49.86;94932.69;5052361;28;20313;-72
2023/12/26 08:16:45;;;;;;;19.90;13.57;;;;;;;18.52;50.08;94925.78;5052082;28;20711;-69
2023/12/26 08:19:12;;;;;;;17.50;12.70;;;;;;;18.11;50.31;94890.03;5051656;28;20303;-73
2023/12/26 08:21:39;;;;;;;25.17;13.50;;;;;;;18.18;50.31;94922.00;5052173;28;20613;-72
2023/12/26 08:24:08;;;;;;;25.27;14.67;;;;;;;17.98;50.42;94923.50;5052117;28;20187;-72
2023/12/26 08:26:36;;;;;;;24.73;15.00;;;;;;;17.78;50.47;94918.81;5051982;28;20196;-73
2023/12/26 08:29:03;;;;;;;24.20;14.90;;;;;;;17.66;50.65;94932.34;5051853;28;20186;-72
2023/12/26 08:31:30;;;;;;;23.80;15.03;;;;;;;17.55;50.44;94920.63;5052458;28;20282;-69
2023/12/26 08:33:56;;;;;;;22.33;14.80;;;;;;;17.58;50.33;94925.47;5052198;28;20183;-73
2023/12/26 08:36:23;;;;;;;20.90;14.53;;;;;;;17.80;49.82;94937.59;5052062;28;20201;-70
2023/12/26 08:38:50;;;;;;;26.20;15.87;;;;;;;18.09;49.11;94932.59;5052064;28;20201;-72
2023/12/26 08:41:16;;;;;;;22.63;14.33;;;;;;;18.38;48.45;94932.59;5051907;28;20226;-73
2023/12/26 08:43:45;;;;;;;20.03;14.97;;;;;;;18.34;47.95;94933.13;5051959;28;20195;-73
2023/12/26 08:46:12;;;;;;;23.90;14.97;;;;;;;17.82;48.60;94898.59;5051961;28;20277;-69
2023/12/26 08:48:38;;;;;;;22.53;14.07;;;;;;;17.71;49.06;94924.88;5051946;28;20246;-71
2023/12/26 08:51:05;;;;;;;24.23;16.23;;;;;;;17.24;49.52;94898.25;5051388;28;20201;-72
2023/12/26 08:53:32;;;;;;;25.27;15.20;;;;;;;17.12;49.77;94917.72;5051970;28;20195;-71
2023/12/26 08:56:03;;;;;;;22.57;15.37;;;;;;;16.96;50.04;94925.59;5051047;28;20187;-70
2023/12/26 08:58:31;;;;;;;23.93;15.27;;;;;;;16.75;50.32;94923.59;5052069;28;20194;-70
2023/12/26 09:01:00;;;;;;;26.63;15.07;;;;;;;16.44;50.58;94895.16;5051300;28;20195;-71
2023/12/26 09:03:27;;;;;;;24.20;15.20;;;;;;;16.40;50.68;94904.22;5051825;28;20179;-68
2023/12/26 09:05:54;;;;;;;21.87;15.03;;;;;;;16.02;50.94;94858.41;5051140;28;20564;-70
2023/12/26 09:08:21;;;;;;;25.50;15.80;;;;;;;16.30;51.00;94919.91;5051980;28;20636;-69
2023/12/26 09:10:48;;;;;;;23.77;15.50;;;;;;;16.21;51.26;94910.59;5051345;28;20298;-73
2023/12/26 09:13:20;;;;;;;25.77;15.33;;;;;;;15.57;51.47;94820.31;5051705;28;20191;-72
2023/12/26 09:15:47;;;;;;;25.07;14.90;;;;;;;16.05;51.60;94903.69;5051334;28;20206;-72
2023/12/26 09:18:16;;;;;;;21.20;15.17;;;;;;;15.89;51.80;94889.09;5050531;28;20714;-69
2023/12/26 09:20:44;;;;;;;21.20;15.00;;;;;;;15.84;51.77;94893.91;5051044;28;20671;-69
2023/12/26 09:23:12;;;;;;;30.50;15.97;;;;;;;15.88;51.79;94894.41;5051197;28;20260;-68
2023/12/26 09:25:39;;;;;;;24.03;14.50;;;;;;;15.83;51.88;94902.63;5051424;28;20195;-70
2023/12/26 09:28:07;;;;;;;21.93;14.57;;;;;;;15.81;51.98;94889.13;5051054;28;20199;-73
2023/12/26 09:30:34;;;;;;;24.73;15.10;;;;;;;15.63;52.09;94862.66;5051267;28;20183;-73
2023/12/26 09:33:01;;;;;;;27.47;14.53;;;;;;;15.73;52.26;94877.03;5051086;28;20198;-73
2023/12/26 09:35:29;;;;;;;23.27;13.87;;;;;;;15.71;52.12;94871.22;5051636;28;20191;-76
2023/12/26 09:37:56;;;;;;;20.23;13.27;;;;;;;15.69;52.04;94869.78;5051173;28;20190;-75
2023/12/26 09:40:23;;;;;;;23.53;13.63;;;;;;;15.65;52.15;94864.16;5051404;28;20201;-73
2023/12/26 09:42:50;;;;;;;22.43;12.23;;;;;;;15.48;52.31;94834.19;5050674;28;20225;-75
2023/12/26 09:45:17;;;;;;;17.93;12.87;;;;;;;15.62;52.21;94858.50;5051174;28;20195;-72
2023/12/26 09:47:44;;;;;;;19.50;12.57;;;;;;;15.60;52.35;94858.66;5051191;28;20270;-74
2023/12/26 09:50:12;;;;;;;19.47;11.90;;;;;;;15.61;52.19;94854.31;5051502;28;20191;-71
2023/12/26 09:52:44;;;;;;;20.40;12.43;;;;;;;15.60;52.12;94853.50;5051205;28;20190;-74
2023/12/26 09:55:11;;;;;;;18.73;11.37;;;;;;;15.59;52.19;94846.75;5051752;28;20194;-72
2023/12/26 09:57:40;;;;;;;17.37;11.73;;;;;;;15.60;52.10;94850.13;5057408;28;20195;-73
2023/12/26 10:00:08;;;;;;;15.13;11.07;;;;;;;15.60;52.17;94847.56;5054384;28;20195;-74
2023/12/26 10:02:35;;;;;;;17.70;10.83;;;;;;;15.56;52.07;94840.13;5050258;28;20573;-72
2023/12/26 10:05:02;;;;;;;15.50;10.67;;;;;;;15.49;52.01;94821.13;5050604;28;20206;-73
2023/12/26 10:07:29;;;;;;;17.80;11.10;;;;;;;15.66;52.10;94839.19;5050624;28;20187;-76
2023/12/26 10:09:58;;;;;;;15.90;10.17;;;;;;;15.68;51.94;94834.69;5050408;28;20214;-73
2023/12/26 10:12:27;;;;;;;16.07;9.93;;;;;;;15.65;51.95;94816.94;5050372;28;20308;-71
2023/12/26 10:14:58;;;;;;;18.20;11.03;;;;;;;15.66;51.82;94819.34;5050755;28;20191;-74
2023/12/26 10:17:26;;;;;;;17.73;10.10;;;;;;;15.77;51.99;94831.09;5050827;28;20195;-72
2023/12/26 10:19:57;;;;;;;14.77;11.03;;;;;;;15.73;51.89;94810.00;5051483;28;20569;-72
2023/12/26 10:22:24;;;;;;;17.87;9.87;;;;;;;15.77;51.76;94806.13;5053787;28;20223;-70
2023/12/26 10:24:51;;;;;;;18.50;10.87;;;;;;;15.89;51.80;94827.19;5053024;28;20282;-74
2023/12/26 10:27:19;;;;;;;14.50;10.07;;;;;;;15.93;51.72;94812.16;5051095;28;20187;-72
2023/12/26 10:29:51;;;;;;;17.50;9.83;;;;;;;15.95;51.72;94808.47;5049364;28;20335;-74
2023/12/26 10:32:18;;;;;;;14.37;10.03;;;;;;;15.87;51.43;94782.69;5050277;28;20195;-72
2023/12/26 10:34:45;;;;;;;15.43;8.80;;;;;;;16.10;51.42;94803.38;5050040;28;20229;-72
2023/12/26 10:37:12;;;;;;;14.10;8.73;;;;;;;16.08;51.32;94800.19;5050116;28;20278;-70
2023/12/26 10:39:42;;;;;;;16.40;8.87;;;;;;;16.22;51.20;94807.19;5050036;28;20209;-71
2023/12/26 10:42:11;;;;;;;12.77;9.40;;;;;;;16.10;51.15;94777.59;5050068;28;20226;-70
2023/12/26 10:44:59;;;;;;;15.20;9.53;;;;;;;16.35;51.02;94800.69;5049590;28;20274;-75
2023/12/26 10:47:29;;;;;;;14.90;9.03;;;;;;;16.39;51.04;94796.78;5049966;28;20656;-72
2023/12/26 10:49:59;;;;;;;15.93;9.27;;;;;;;16.43;51.11;94790.31;5049736;28;20557;-75
2023/12/26 10:52:27;;;;;;;18.20;8.87;;;;;;;16.48;50.74;94790.59;5050023;28;20199;-78
2023/12/26 10:54:56;;;;;;;12.90;9.33;;;;;;;16.40;50.95;94770.81;5049447;28;20202;-76
2023/12/26 10:57:24;;;;;;;12.23;8.33;;;;;;;16.51;50.71;94783.31;5049679;28;20190;-77
2023/12/26 13:51:27;;;;;;;9.40;5.60;;;;;;;16.96;49.90;94637.03;5051064;28;20173;-70
2023/12/26 13:53:54;;;;;;;9.10;5.53;;;;;;;16.95;49.69;94629.47;5050898;28;20579;-69
2023/12/26 13:56:20;;;;;;;7.50;5.50;;;;;;;16.97;49.79;94632.69;5050975;28;20278;-71
2023/12/26 13:58:47;;;;;;;11.07;6.40;;;;;;;16.76;49.94;94595.47;5050400;28;20994;-70
2023/12/26 14:01:16;;;;;;;9.93;5.87;;;;;;;16.96;49.68;94628.50;5050601;28;20258;-73
2023/12/26 14:03:49;;;;;;;6.57;5.33;;;;;;;16.96;49.72;94629.28;5050188;28;20214;-71
2023/12/26 14:06:16;;;;;;;12.63;5.53;;;;;;;16.95;49.62;94622.53;5050669;28;20191;-69
2023/12/26 14:08:44;;;;;;;8.77;6.03;;;;;;;16.93;49.50;94624.50;5050594;28;20245;-71
2023/12/26 14:11:11;;;;;;;10.00;6.13;;;;;;;16.91;49.60;94608.34;5051123;28;20194;-73
2023/12/26 14:13:37;;;;;;;8.83;5.23;;;;;;;16.85;49.67;94614.25;5050343;28;20187;-71
2023/12/26 14:16:04;;;;;;;10.70;6.40;;;;;;;16.77;49.75;94619.50;5050607;28;20191;-75
2023/12/26 14:18:31;;;;;;;10.07;5.57;;;;;;;16.69;49.62;94609.22;5050296;28;20265;-69